sensor_id;sensor_type;location;lat;lon;timestamp;pressure;altitude;pressure_sealevel;temperature;humidity
36932;BME280;22847;42.654;23.370;2023-04-30T00:00:10;94397.91;;;14.47;57.71
36932;BME280;22847;42.654;23.370;2023-04-30T00:02:36;94328.53;;;14.27;57.42
36932;BME280;22847;42.654;23.370;2023-04-30T00:05:02;94259.69;;;13.57;57.24
36932;BME280;22847;42.654;23.370;2023-04-30T00:07:28;94350.19;;;14.21;57.85
36932;BME280;22847;42.654;23.370;2023-04-30T00:09:54;94247.19;;;13.67;57.26
36932;BME280;22847;42.654;23.370;2023-04-30T00:12:19;94380.16;;;14.26;57.21
36932;BME280;22847;42.654;23.370;2023-04-30T00:14:45;94183.44;;;13.21;57.03
36932;BME280;22847;42.654;23.370;2023-04-30T00:17:11;94400.63;;;14.31;57.01
36932;BME280;22847;42.654;23.370;2023-04-30T00:19:36;94371.19;;;14.21;57.26
36932;BME280;22847;42.654;23.370;2023-04-30T00:22:01;94368.19;;;14.24;57.12
36932;BME280;22847;42.654;23.370;2023-04-30T00:24:28;94351.34;;;13.96;57.53
36932;BME280;22847;42.654;23.370;2023-04-30T00:26:53;94317.88;;;13.75;57.66
36932;BME280;22847;42.654;23.370;2023-04-30T00:29:18;94369.03;;;13.94;57.07
36932;BME280;22847;42.654;23.370;2023-04-30T00:31:44;94200.34;;;13.02;57.67
36932;BME280;22847;42.654;23.370;2023-04-30T00:34:09;94340.41;;;13.84;57.27
36932;BME280;22847;42.654;23.370;2023-04-30T00:36:35;94374.41;;;14.00;57.33
36932;BME280;22847;42.654;23.370;2023-04-30T00:39:00;94333.84;;;13.57;57.54
36932;BME280;22847;42.654;23.370;2023-04-30T00:41:26;94316.31;;;13.58;57.49
36932;BME280;22847;42.654;23.370;2023-04-30T00:43:52;94175.13;;;12.70;57.47
36932;BME280;22847;42.654;23.370;2023-04-30T00:46:18;94044.09;;;11.79;57.59
36932;BME280;22847;42.654;23.370;2023-04-30T00:48:43;94350.59;;;13.48;57.92
36932;BME280;22847;42.654;23.370;2023-04-30T00:51:08;94174.56;;;12.52;58.02
36932;BME280;22847;42.654;23.370;2023-04-30T00:53:35;94368.47;;;13.75;57.40
36932;BME280;22847;42.654;23.370;2023-04-30T00:56:01;94332.03;;;13.58;57.72
36932;BME280;22847;42.654;23.370;2023-04-30T00:58:27;94312.47;;;13.46;57.70
36932;BME280;22847;42.654;23.370;2023-04-30T01:00:52;94239.19;;;12.90;57.69
36932;BME280;22847;42.654;23.370;2023-04-30T01:03:18;94321.78;;;13.48;57.80
36932;BME280;22847;42.654;23.370;2023-04-30T01:05:44;94389.28;;;13.77;57.89
36932;BME280;22847;42.654;23.370;2023-04-30T01:08:10;94388.00;;;13.73;58.09
36932;BME280;22847;42.654;23.370;2023-04-30T01:10:54;94386.16;;;13.73;58.18
36932;BME280;22847;42.654;23.370;2023-04-30T01:13:35;94064.69;;;11.74;58.18
36932;BME280;22847;42.654;23.370;2023-04-30T01:16:14;94215.69;;;12.66;58.77
36932;BME280;22847;42.654;23.370;2023-04-30T01:18:52;94181.94;;;12.40;58.76
36932;BME280;22847;42.654;23.370;2023-04-30T01:21:19;94224.56;;;12.49;59.00
36932;BME280;22847;42.654;23.370;2023-04-30T01:24:01;94373.81;;;13.51;59.26
36932;BME280;22847;42.654;23.370;2023-04-30T01:29:10;94362.72;;;13.33;60.79
36932;BME280;22847;42.654;23.370;2023-04-30T01:31:37;94372.56;;;13.31;61.56
36932;BME280;22847;42.654;23.370;2023-04-30T01:34:02;94359.09;;;13.42;61.59
36932;BME280;22847;42.654;23.370;2023-04-30T01:36:48;94356.88;;;13.31;61.16
36932;BME280;22847;42.654;23.370;2023-04-30T01:42:18;94308.47;;;13.03;60.95
36932;BME280;22847;42.654;23.370;2023-04-30T01:44:53;94369.56;;;13.42;60.63
36932;BME280;22847;42.654;23.370;2023-04-30T01:47:35;94352.75;;;13.28;60.48
36932;BME280;22847;42.654;23.370;2023-04-30T01:52:55;94179.59;;;11.74;60.69
36932;BME280;22847;42.654;23.370;2023-04-30T01:55:43;94339.28;;;12.84;60.86
36932;BME280;22847;42.654;23.370;2023-04-30T01:58:13;94353.31;;;12.83;60.78
36932;BME280;22847;42.654;23.370;2023-04-30T02:00:40;94153.78;;;11.55;60.76
36932;BME280;22847;42.654;23.370;2023-04-30T02:03:06;94263.00;;;12.32;60.93
36932;BME280;22847;42.654;23.370;2023-04-30T02:05:31;94356.28;;;12.88;61.08
36932;BME280;22847;42.654;23.370;2023-04-30T02:07:57;94268.72;;;12.12;61.31
36932;BME280;22847;42.654;23.370;2023-04-30T02:10:24;94338.31;;;12.77;61.07
36932;BME280;22847;42.654;23.370;2023-04-30T02:12:50;94143.34;;;11.39;61.73
36932;BME280;22847;42.654;23.370;2023-04-30T02:15:16;94259.44;;;12.01;61.23
36932;BME280;22847;42.654;23.370;2023-04-30T02:17:41;94363.00;;;12.75;60.71
36932;BME280;22847;42.654;23.370;2023-04-30T02:20:08;94170.59;;;11.52;60.91
36932;BME280;22847;42.654;23.370;2023-04-30T02:22:34;94321.66;;;12.46;60.51
36932;BME280;22847;42.654;23.370;2023-04-30T02:24:59;94349.91;;;12.67;60.04
36932;BME280;22847;42.654;23.370;2023-04-30T02:27:25;94324.44;;;12.61;60.03
36932;BME280;22847;42.654;23.370;2023-04-30T02:29:51;94346.00;;;12.63;60.09
36932;BME280;22847;42.654;23.370;2023-04-30T02:32:17;94175.66;;;11.70;60.13
36932;BME280;22847;42.654;23.370;2023-04-30T02:34:44;94297.31;;;12.45;59.90
36932;BME280;22847;42.654;23.370;2023-04-30T02:37:09;94367.25;;;12.92;60.19
36932;BME280;22847;42.654;23.370;2023-04-30T02:39:35;94325.91;;;12.55;60.72
36932;BME280;22847;42.654;23.370;2023-04-30T02:42:01;94193.97;;;11.78;60.62
36932;BME280;22847;42.654;23.370;2023-04-30T02:44:27;94279.69;;;12.23;60.82
36932;BME280;22847;42.654;23.370;2023-04-30T02:46:52;94174.97;;;11.44;61.17
36932;BME280;22847;42.654;23.370;2023-04-30T02:49:18;94191.13;;;11.55;61.21
36932;BME280;22847;42.654;23.370;2023-04-30T02:51:43;94306.16;;;12.28;61.15
36932;BME280;22847;42.654;23.370;2023-04-30T02:54:09;94370.34;;;12.71;61.11
36932;BME280;22847;42.654;23.370;2023-04-30T02:56:34;94322.31;;;12.40;61.47
36932;BME280;22847;42.654;23.370;2023-04-30T02:59:00;94381.81;;;12.78;61.26
36932;BME280;22847;42.654;23.370;2023-04-30T03:01:25;94379.88;;;12.56;61.79
36932;BME280;22847;42.654;23.370;2023-04-30T03:03:51;94407.81;;;12.72;61.80
36932;BME280;22847;42.654;23.370;2023-04-30T03:06:17;94416.44;;;12.48;62.25
36932;BME280;22847;42.654;23.370;2023-04-30T03:08:42;94375.91;;;12.36;62.16
36932;BME280;22847;42.654;23.370;2023-04-30T03:11:08;94379.44;;;11.86;63.34
36932;BME280;22847;42.654;23.370;2023-04-30T03:13:33;94381.44;;;12.25;62.57
36932;BME280;22847;42.654;23.370;2023-04-30T03:15:59;94381.88;;;11.46;64.71
36932;BME280;22847;42.654;23.370;2023-04-30T03:18:28;94417.81;;;11.26;65.50
36932;BME280;22847;42.654;23.370;2023-04-30T03:20:54;94348.53;;;10.98;65.24
36932;BME280;22847;42.654;23.370;2023-04-30T03:23:19;94392.41;;;11.70;63.62
36932;BME280;22847;42.654;23.370;2023-04-30T03:25:44;94393.19;;;12.13;62.17
36932;BME280;22847;42.654;23.370;2023-04-30T03:28:10;94390.97;;;12.42;61.08
36932;BME280;22847;42.654;23.370;2023-04-30T03:30:35;94291.91;;;11.98;60.73
36932;BME280;22847;42.654;23.370;2023-04-30T03:33:01;94376.88;;;12.75;61.17
36932;BME280;22847;42.654;23.370;2023-04-30T03:35:26;94376.59;;;12.78;60.90
36932;BME280;22847;42.654;23.370;2023-04-30T03:37:52;94348.47;;;12.56;61.27
36932;BME280;22847;42.654;23.370;2023-04-30T03:40:17;94242.44;;;11.89;59.80
36932;BME280;22847;42.654;23.370;2023-04-30T03:42:43;94417.94;;;12.83;59.77
36932;BME280;22847;42.654;23.370;2023-04-30T03:45:08;94191.00;;;11.57;59.82
36932;BME280;22847;42.654;23.370;2023-04-30T03:47:34;94413.50;;;13.00;61.01
36932;BME280;22847;42.654;23.370;2023-04-30T03:50:02;94415.16;;;13.01;61.16
36932;BME280;22847;42.654;23.370;2023-04-30T03:52:28;94409.91;;;13.09;61.60
36932;BME280;22847;42.654;23.370;2023-04-30T03:54:53;94365.13;;;12.71;61.26
36932;BME280;22847;42.654;23.370;2023-04-30T03:57:19;94223.16;;;11.90;60.91
36932;BME280;22847;42.654;23.370;2023-04-30T03:59:45;94385.38;;;12.93;60.24
36932;BME280;22847;42.654;23.370;2023-04-30T04:02:11;94402.41;;;12.89;59.30
36932;BME280;22847;42.654;23.370;2023-04-30T04:04:36;94253.06;;;12.03;60.13
36932;BME280;22847;42.654;23.370;2023-04-30T04:07:01;94366.41;;;12.83;61.01
36932;BME280;22847;42.654;23.370;2023-04-30T04:09:28;94288.81;;;12.35;61.06
36932;BME280;22847;42.654;23.370;2023-04-30T04:11:53;94451.47;;;13.28;61.33
36932;BME280;22847;42.654;23.370;2023-04-30T04:14:18;94383.88;;;13.07;60.78
36932;BME280;22847;42.654;23.370;2023-04-30T04:16:44;94456.38;;;13.31;59.99
36932;BME280;22847;42.654;23.370;2023-04-30T04:19:09;94380.78;;;13.12;60.05
36932;BME280;22847;42.654;23.370;2023-04-30T04:21:36;94404.97;;;13.30;59.32
36932;BME280;22847;42.654;23.370;2023-04-30T04:24:02;94422.47;;;13.29;60.04
36932;BME280;22847;42.654;23.370;2023-04-30T04:26:36;94433.41;;;13.49;60.20
36932;BME280;22847;42.654;23.370;2023-04-30T04:29:05;94411.06;;;13.22;59.71
36932;BME280;22847;42.654;23.370;2023-04-30T04:31:30;94230.34;;;12.28;59.86
36932;BME280;22847;42.654;23.370;2023-04-30T04:33:58;94270.16;;;12.63;59.78
36932;BME280;22847;42.654;23.370;2023-04-30T04:36:25;94415.44;;;13.38;60.08
36932;BME280;22847;42.654;23.370;2023-04-30T04:38:57;94430.66;;;13.34;60.13
36932;BME280;22847;42.654;23.370;2023-04-30T04:41:29;94285.00;;;12.78;59.79
36932;BME280;22847;42.654;23.370;2023-04-30T04:43:57;94330.91;;;12.97;59.71
36932;BME280;22847;42.654;23.370;2023-04-30T04:46:23;94407.19;;;13.57;60.48
36932;BME280;22847;42.654;23.370;2023-04-30T04:48:48;94249.38;;;12.77;59.21
36932;BME280;22847;42.654;23.370;2023-04-30T04:51:14;94331.97;;;13.35;59.08
36932;BME280;22847;42.654;23.370;2023-04-30T04:53:39;94444.66;;;14.13;58.76
36932;BME280;22847;42.654;23.370;2023-04-30T04:56:05;94484.09;;;14.19;58.45
36932;BME280;22847;42.654;23.370;2023-04-30T04:58:31;94424.84;;;14.02;58.72
36932;BME280;22847;42.654;23.370;2023-04-30T05:00:57;94410.94;;;14.02;58.65
36932;BME280;22847;42.654;23.370;2023-04-30T05:03:24;94276.75;;;13.14;58.67
36932;BME280;22847;42.654;23.370;2023-04-30T05:05:51;94450.00;;;14.19;58.64
36932;BME280;22847;42.654;23.370;2023-04-30T05:08:17;94223.31;;;12.84;59.15
36932;BME280;22847;42.654;23.370;2023-04-30T05:10:42;94451.44;;;14.30;59.21
36932;BME280;22847;42.654;23.370;2023-04-30T05:13:07;94393.44;;;13.94;58.90
36932;BME280;22847;42.654;23.370;2023-04-30T05:15:34;94233.28;;;12.96;59.06
36932;BME280;22847;42.654;23.370;2023-04-30T05:17:59;94433.16;;;14.14;59.06
36932;BME280;22847;42.654;23.370;2023-04-30T05:20:25;94433.84;;;14.08;59.36
36932;BME280;22847;42.654;23.370;2023-04-30T05:22:51;94469.16;;;14.36;59.20
36932;BME280;22847;42.654;23.370;2023-04-30T05:25:16;94493.38;;;14.38;59.04
36932;BME280;22847;42.654;23.370;2023-04-30T05:27:41;94269.47;;;13.32;58.38
36932;BME280;22847;42.654;23.370;2023-04-30T05:30:07;94458.41;;;14.46;58.85
36932;BME280;22847;42.654;23.370;2023-04-30T05:32:33;94459.31;;;14.30;58.66
36932;BME280;22847;42.654;23.370;2023-04-30T05:34:59;94257.97;;;13.41;58.45
36932;BME280;22847;42.654;23.370;2023-04-30T05:37:25;94442.81;;;14.52;58.78
36932;BME280;22847;42.654;23.370;2023-04-30T05:39:50;94232.97;;;13.30;58.79
36932;BME280;22847;42.654;23.370;2023-04-30T05:42:18;94466.78;;;14.49;59.43
36932;BME280;22847;42.654;23.370;2023-04-30T05:44:43;94226.06;;;13.37;58.68
36932;BME280;22847;42.654;23.370;2023-04-30T05:47:09;94298.31;;;13.85;57.93
36932;BME280;22847;42.654;23.370;2023-04-30T05:49:35;94457.09;;;14.72;58.03
36932;BME280;22847;42.654;23.370;2023-04-30T05:52:00;94233.41;;;13.42;58.01
36932;BME280;22847;42.654;23.370;2023-04-30T05:54:28;94433.72;;;14.63;58.13
36932;BME280;22847;42.654;23.370;2023-04-30T05:56:53;94429.91;;;14.65;58.24
36932;BME280;22847;42.654;23.370;2023-04-30T05:59:18;94432.09;;;14.85;58.26
36932;BME280;22847;42.654;23.370;2023-04-30T06:01:44;94440.03;;;14.77;58.35
36932;BME280;22847;42.654;23.370;2023-04-30T06:04:10;94409.50;;;14.76;58.01
36932;BME280;22847;42.654;23.370;2023-04-30T06:06:35;94449.63;;;15.07;58.22
36932;BME280;22847;42.654;23.370;2023-04-30T06:09:01;94303.44;;;14.02;58.16
36932;BME280;22847;42.654;23.370;2023-04-30T06:11:26;94287.72;;;14.02;58.08
36932;BME280;22847;42.654;23.370;2023-04-30T06:13:52;94360.69;;;14.21;57.93
36932;BME280;22847;42.654;23.370;2023-04-30T06:16:17;94438.44;;;14.90;57.91
36932;BME280;22847;42.654;23.370;2023-04-30T06:18:43;94444.91;;;15.02;57.64
36932;BME280;22847;42.654;23.370;2023-04-30T06:21:08;94443.44;;;15.00;58.49
36932;BME280;22847;42.654;23.370;2023-04-30T06:23:34;94348.53;;;14.51;58.29
36932;BME280;22847;42.654;23.370;2023-04-30T06:25:59;94285.22;;;14.08;58.36
36932;BME280;22847;42.654;23.370;2023-04-30T06:28:25;94470.06;;;15.34;58.32
36932;BME280;22847;42.654;23.370;2023-04-30T06:30:50;94298.28;;;14.39;57.83
36932;BME280;22847;42.654;23.370;2023-04-30T06:33:17;94446.19;;;15.06;58.19
36932;BME280;22847;42.654;23.370;2023-04-30T06:35:43;94440.47;;;15.03;58.74
36932;BME280;22847;42.654;23.370;2023-04-30T06:38:08;94471.88;;;15.34;58.22
36932;BME280;22847;42.654;23.370;2023-04-30T06:40:34;94474.75;;;15.24;57.79
36932;BME280;22847;42.654;23.370;2023-04-30T06:42:59;94483.25;;;15.49;58.06
36932;BME280;22847;42.654;23.370;2023-04-30T06:45:25;94445.44;;;15.35;57.63
36932;BME280;22847;42.654;23.370;2023-04-30T06:47:50;94323.06;;;14.74;57.09
36932;BME280;22847;42.654;23.370;2023-04-30T06:50:17;94314.53;;;14.95;56.58
36932;BME280;22847;42.654;23.370;2023-04-30T06:52:43;94428.91;;;15.79;56.04
36932;BME280;22847;42.654;23.370;2023-04-30T06:55:08;94459.91;;;16.48;56.32
36932;BME280;22847;42.654;23.370;2023-04-30T06:57:34;94461.78;;;16.69;54.74
36932;BME280;22847;42.654;23.370;2023-04-30T07:00:05;94479.72;;;16.80;54.46
36932;BME280;22847;42.654;23.370;2023-04-30T07:02:30;94312.81;;;15.96;52.95
36932;BME280;22847;42.654;23.370;2023-04-30T07:04:56;94479.94;;;17.00;52.91
36932;BME280;22847;42.654;23.370;2023-04-30T07:07:22;94351.16;;;16.27;52.30
36932;BME280;22847;42.654;23.370;2023-04-30T07:09:47;94484.31;;;16.93;52.53
36932;BME280;22847;42.654;23.370;2023-04-30T07:12:13;94423.69;;;16.86;52.01
36932;BME280;22847;42.654;23.370;2023-04-30T07:14:38;94511.28;;;17.16;51.88
36932;BME280;22847;42.654;23.370;2023-04-30T07:17:04;94396.84;;;16.40;53.73
36932;BME280;22847;42.654;23.370;2023-04-30T07:19:30;94464.97;;;17.07;53.48
36932;BME280;22847;42.654;23.370;2023-04-30T07:21:56;94318.66;;;16.13;53.70
36932;BME280;22847;42.654;23.370;2023-04-30T07:24:22;94477.13;;;17.29;53.02
36932;BME280;22847;42.654;23.370;2023-04-30T07:26:47;94441.25;;;16.79;53.98
36932;BME280;22847;42.654;23.370;2023-04-30T07:29:13;94421.72;;;16.74;54.75
36932;BME280;22847;42.654;23.370;2023-04-30T07:31:38;94479.22;;;17.13;54.15
36932;BME280;22847;42.654;23.370;2023-04-30T07:34:03;94437.66;;;16.66;53.98
36932;BME280;22847;42.654;23.370;2023-04-30T07:36:29;94345.22;;;16.18;54.25
36932;BME280;22847;42.654;23.370;2023-04-30T07:38:55;94478.81;;;16.88;54.34
36932;BME280;22847;42.654;23.370;2023-04-30T07:41:20;94502.38;;;16.96;55.09
36932;BME280;22847;42.654;23.370;2023-04-30T07:43:46;94341.31;;;16.14;53.75
36932;BME280;22847;42.654;23.370;2023-04-30T07:46:11;94485.38;;;17.20;53.18
36932;BME280;22847;42.654;23.370;2023-04-30T07:48:36;94489.34;;;17.09;52.92
36932;BME280;22847;42.654;23.370;2023-04-30T07:51:03;94471.50;;;16.69;53.89
36932;BME280;22847;42.654;23.370;2023-04-30T07:53:29;94503.53;;;16.72;54.36
36932;BME280;22847;42.654;23.370;2023-04-30T07:55:55;94477.97;;;16.51;54.42
36932;BME280;22847;42.654;23.370;2023-04-30T07:58:20;94377.88;;;16.09;53.98
36932;BME280;22847;42.654;23.370;2023-04-30T08:00:45;94492.09;;;17.01;53.80
36932;BME280;22847;42.654;23.370;2023-04-30T08:03:11;94435.28;;;16.56;53.88
36932;BME280;22847;42.654;23.370;2023-04-30T08:05:36;94500.78;;;16.80;53.75
36932;BME280;22847;42.654;23.370;2023-04-30T08:08:02;94514.03;;;17.29;52.59
36932;BME280;22847;42.654;23.370;2023-04-30T08:10:27;94388.44;;;16.66;53.59
36932;BME280;22847;42.654;23.370;2023-04-30T08:12:53;94457.59;;;17.17;52.94
36932;BME280;22847;42.654;23.370;2023-04-30T08:15:18;94482.63;;;17.56;51.33
36932;BME280;22847;42.654;23.370;2023-04-30T08:17:49;94454.34;;;17.43;51.39
36932;BME280;22847;42.654;23.370;2023-04-30T08:20:15;94430.81;;;17.42;51.60
36932;BME280;22847;42.654;23.370;2023-04-30T08:22:41;94359.47;;;17.15;50.76
36932;BME280;22847;42.654;23.370;2023-04-30T08:25:12;94479.97;;;18.11;51.01
36932;BME280;22847;42.654;23.370;2023-04-30T08:27:38;94351.78;;;17.48;49.54
36932;BME280;22847;42.654;23.370;2023-04-30T08:30:05;94474.63;;;18.33;49.95
36932;BME280;22847;42.654;23.370;2023-04-30T08:32:34;94326.22;;;17.49;49.32
36932;BME280;22847;42.654;23.370;2023-04-30T08:35:04;94507.94;;;18.40;49.21
36932;BME280;22847;42.654;23.370;2023-04-30T08:37:29;94302.22;;;17.03;48.99
36932;BME280;22847;42.654;23.370;2023-04-30T08:39:55;94483.41;;;18.05;48.96
36932;BME280;22847;42.654;23.370;2023-04-30T08:42:24;94484.66;;;18.16;48.57
36932;BME280;22847;42.654;23.370;2023-04-30T08:44:49;94492.66;;;17.95;52.90
36932;BME280;22847;42.654;23.370;2023-04-30T08:47:15;94384.38;;;18.09;52.77
36932;BME280;22847;42.654;23.370;2023-04-30T08:49:42;94453.69;;;19.05;49.43
36932;BME280;22847;42.654;23.370;2023-04-30T08:52:08;94455.13;;;19.14;50.39
36932;BME280;22847;42.654;23.370;2023-04-30T08:54:35;94478.31;;;19.18;47.29
36932;BME280;22847;42.654;23.370;2023-04-30T08:57:00;94441.28;;;19.05;48.89
36932;BME280;22847;42.654;23.370;2023-04-30T08:59:26;94474.09;;;19.57;46.13
36932;BME280;22847;42.654;23.370;2023-04-30T09:01:52;94301.88;;;18.55;47.33
36932;BME280;22847;42.654;23.370;2023-04-30T09:04:17;94410.22;;;19.53;45.12
36932;BME280;22847;42.654;23.370;2023-04-30T09:06:43;94458.38;;;19.95;46.21
36932;BME280;22847;42.654;23.370;2023-04-30T09:09:10;94443.38;;;19.76;43.21
36932;BME280;22847;42.654;23.370;2023-04-30T09:11:36;94355.91;;;19.25;45.09
36932;BME280;22847;42.654;23.370;2023-04-30T09:14:02;94449.03;;;19.92;46.65
36932;BME280;22847;42.654;23.370;2023-04-30T09:16:29;94451.13;;;20.48;45.02
36932;BME280;22847;42.654;23.370;2023-04-30T09:19:09;94355.28;;;20.20;44.31
36932;BME280;22847;42.654;23.370;2023-04-30T09:21:35;94316.53;;;20.32;42.30
36932;BME280;22847;42.654;23.370;2023-04-30T09:24:03;94438.44;;;21.26;42.60
36932;BME280;22847;42.654;23.370;2023-04-30T09:26:36;94407.69;;;21.25;42.12
36932;BME280;22847;42.654;23.370;2023-04-30T09:29:03;94453.13;;;21.53;42.88
36932;BME280;22847;42.654;23.370;2023-04-30T09:31:36;94445.13;;;21.60;40.47
36932;BME280;22847;42.654;23.370;2023-04-30T09:34:02;94373.78;;;20.96;39.65
36932;BME280;22847;42.654;23.370;2023-04-30T09:36:28;94431.88;;;21.60;41.54
36932;BME280;22847;42.654;23.370;2023-04-30T09:38:54;94332.03;;;20.91;40.41
36932;BME280;22847;42.654;23.370;2023-04-30T09:41:27;94358.91;;;20.94;40.57
36932;BME280;22847;42.654;23.370;2023-04-30T09:43:54;94274.28;;;20.05;43.56
36932;BME280;22847;42.654;23.370;2023-04-30T09:46:21;94392.66;;;20.81;44.54
36932;BME280;22847;42.654;23.370;2023-04-30T09:48:55;94392.25;;;21.15;41.53
36932;BME280;22847;42.654;23.370;2023-04-30T09:51:21;94418.72;;;21.47;41.28
36932;BME280;22847;42.654;23.370;2023-04-30T09:53:46;94413.41;;;21.22;41.37
36932;BME280;22847;42.654;23.370;2023-04-30T09:56:14;94385.72;;;21.11;43.17
36932;BME280;22847;42.654;23.370;2023-04-30T09:58:49;94413.34;;;21.28;41.07
36932;BME280;22847;42.654;23.370;2023-04-30T10:01:17;94358.22;;;21.06;43.03
36932;BME280;22847;42.654;23.370;2023-04-30T10:03:42;94402.09;;;21.02;39.66
36932;BME280;22847;42.654;23.370;2023-04-30T10:06:11;94404.03;;;20.88;39.86
36932;BME280;22847;42.654;23.370;2023-04-30T10:08:41;94253.84;;;19.81;39.61
36932;BME280;22847;42.654;23.370;2023-04-30T10:11:09;94396.31;;;20.48;40.88
36932;BME280;22847;42.654;23.370;2023-04-30T10:13:46;94390.94;;;20.62;40.39
36932;BME280;22847;42.654;23.370;2023-04-30T10:19:22;94377.63;;;19.73;40.84
36932;BME280;22847;42.654;23.370;2023-04-30T10:21:48;94220.56;;;18.90;40.58
36932;BME280;22847;42.654;23.370;2023-04-30T10:24:15;94380.53;;;20.16;41.74
36932;BME280;22847;42.654;23.370;2023-04-30T10:26:47;94384.41;;;20.20;41.15
36932;BME280;22847;42.654;23.370;2023-04-30T10:29:14;94394.16;;;20.19;40.19
36932;BME280;22847;42.654;23.370;2023-04-30T10:31:40;94258.50;;;19.28;40.48
36932;BME280;22847;42.654;23.370;2023-04-30T10:36:42;94444.81;;;19.72;42.72
36932;BME280;22847;42.654;23.370;2023-04-30T10:39:12;94431.75;;;19.37;43.66
36932;BME280;22847;42.654;23.370;2023-04-30T10:41:39;94438.06;;;19.03;45.95
36932;BME280;22847;42.654;23.370;2023-04-30T10:44:06;94466.25;;;18.83;48.86
36932;BME280;22847;42.654;23.370;2023-04-30T10:46:35;94473.72;;;18.60;50.11
36932;BME280;22847;42.654;23.370;2023-04-30T10:49:01;94373.72;;;17.55;53.64
36932;BME280;22847;42.654;23.370;2023-04-30T10:51:50;94446.22;;;17.66;55.03
36932;BME280;22847;42.654;23.370;2023-04-30T10:54:27;94443.47;;;17.53;57.28
36932;BME280;22847;42.654;23.370;2023-04-30T10:56:53;94306.69;;;17.02;56.10
36932;BME280;22847;42.654;23.370;2023-04-30T10:59:21;94395.47;;;17.98;55.57
36932;BME280;22847;42.654;23.370;2023-04-30T11:01:57;94285.84;;;17.89;56.95
36932;BME280;22847;42.654;23.370;2023-04-30T11:04:23;94423.00;;;18.97;52.35
36932;BME280;22847;42.654;23.370;2023-04-30T11:09:42;94424.63;;;19.84;48.59
36932;BME280;22847;42.654;23.370;2023-04-30T11:12:13;94448.63;;;19.89;49.06
36932;BME280;22847;42.654;23.370;2023-04-30T11:14:44;94378.44;;;19.73;47.61
36932;BME280;22847;42.654;23.370;2023-04-30T11:17:11;94433.59;;;19.76;47.15
36932;BME280;22847;42.654;23.370;2023-04-30T11:19:50;94361.81;;;19.40;45.97
36932;BME280;22847;42.654;23.370;2023-04-30T11:22:22;94395.38;;;19.46;47.75
36932;BME280;22847;42.654;23.370;2023-04-30T11:24:49;94424.88;;;19.63;45.86
36932;BME280;22847;42.654;23.370;2023-04-30T11:27:19;94440.13;;;19.67;46.44
36932;BME280;22847;42.654;23.370;2023-04-30T11:29:45;94424.88;;;19.56;43.89
36932;BME280;22847;42.654;23.370;2023-04-30T11:32:11;94417.75;;;19.50;45.63
36932;BME280;22847;42.654;23.370;2023-04-30T11:34:37;94384.97;;;19.38;45.65
36932;BME280;22847;42.654;23.370;2023-04-30T11:37:03;94262.63;;;18.45;45.35
36932;BME280;22847;42.654;23.370;2023-04-30T11:39:28;94298.16;;;18.43;45.68
36932;BME280;22847;42.654;23.370;2023-04-30T11:41:56;94382.56;;;18.90;45.93
36932;BME280;22847;42.654;23.370;2023-04-30T11:44:25;94289.84;;;18.33;46.96
36932;BME280;22847;42.654;23.370;2023-04-30T11:46:51;94405.94;;;19.06;47.72
36932;BME280;22847;42.654;23.370;2023-04-30T11:49:16;94423.41;;;19.01;55.79
36932;BME280;22847;42.654;23.370;2023-04-30T11:51:42;94381.50;;;19.64;48.92
36932;BME280;22847;42.654;23.370;2023-04-30T11:54:13;94413.13;;;20.10;49.16
36932;BME280;22847;42.654;23.370;2023-04-30T11:56:38;94275.00;;;19.10;48.40
36932;BME280;22847;42.654;23.370;2023-04-30T11:59:09;94434.88;;;20.38;47.36
36932;BME280;22847;42.654;23.370;2023-04-30T12:01:35;94407.16;;;20.78;46.57
36932;BME280;22847;42.654;23.370;2023-04-30T12:04:01;94364.03;;;19.56;48.28
36932;BME280;22847;42.654;23.370;2023-04-30T12:06:28;94432.38;;;19.20;48.80
36932;BME280;22847;42.654;23.370;2023-04-30T12:08:57;94435.25;;;18.44;50.07
36932;BME280;22847;42.654;23.370;2023-04-30T12:11:25;94270.09;;;18.15;49.68
36932;BME280;22847;42.654;23.370;2023-04-30T12:13:53;94359.78;;;19.15;48.94
36932;BME280;22847;42.654;23.370;2023-04-30T12:16:19;94378.63;;;19.78;47.96
36932;BME280;22847;42.654;23.370;2023-04-30T12:18:45;94369.00;;;19.90;47.56
36932;BME280;22847;42.654;23.370;2023-04-30T12:21:11;94252.06;;;19.04;47.71
36932;BME280;22847;42.654;23.370;2023-04-30T12:23:36;94277.84;;;18.23;49.06
36932;BME280;22847;42.654;23.370;2023-04-30T12:26:02;94257.56;;;18.57;48.02
36932;BME280;22847;42.654;23.370;2023-04-30T12:28:27;94439.28;;;19.07;49.17
36932;BME280;22847;42.654;23.370;2023-04-30T12:30:53;94418.59;;;18.44;50.55
36932;BME280;22847;42.654;23.370;2023-04-30T12:33:18;94333.00;;;18.12;50.87
36932;BME280;22847;42.654;23.370;2023-04-30T12:35:44;94392.50;;;18.14;53.16
36932;BME280;22847;42.654;23.370;2023-04-30T12:38:10;94421.97;;;18.72;52.29
36932;BME280;22847;42.654;23.370;2023-04-30T12:40:35;94427.47;;;18.29;54.15
36932;BME280;22847;42.654;23.370;2023-04-30T12:43:06;94426.47;;;18.31;55.86
36932;BME280;22847;42.654;23.370;2023-04-30T12:45:52;94419.91;;;18.74;54.04
36932;BME280;22847;42.654;23.370;2023-04-30T12:48:19;94427.50;;;19.30;53.21
36932;BME280;22847;42.654;23.370;2023-04-30T12:50:59;94439.06;;;19.15;52.89
36932;BME280;22847;42.654;23.370;2023-04-30T12:53:26;94451.09;;;19.38;52.12
36932;BME280;22847;42.654;23.370;2023-04-30T12:56:10;94271.59;;;18.84;51.13
36932;BME280;22847;42.654;23.370;2023-04-30T12:58:40;94429.88;;;20.03;50.50
36932;BME280;22847;42.654;23.370;2023-04-30T13:01:10;94429.22;;;20.15;50.33
36932;BME280;22847;42.654;23.370;2023-04-30T13:03:36;94392.13;;;19.04;52.82
36932;BME280;22847;42.654;23.370;2023-04-30T13:06:01;94469.22;;;19.54;53.47